EXS257 LDDU-EGBB
Flight info
| Callsign | EXS257 |
|---|---|
| Flight time | N/A |
| Altitude | 40000 |
| Route | AMUGO ZDA MONFA SOTOV KPT L608 ULNOK ADENU L608 LIRSU ARCKY SPI DENUT L610 HEMEL |
| Aircraft | A339/H-SDE2E3FGHIJ1RWXY/LB1 |
Departure
| Time | 2026-05-05 10:02 |
|---|---|
| Airport | Dubrovnik Ruđer Bošković Airport (LDDU) |
Arrival
| Time | N/A |
|---|---|
| Airport | Birmingham Airport (EGBB) |
| Time | Latitude | Longitude | Altitude | Speed | Heading |
|---|---|---|---|---|---|
| 2026-05-05 09:15 | 42.55992 | 18.26560 | 515 ft | 0 kts | 210° |
| 2026-05-05 09:51 | 42.56005 | 18.26570 | 515 ft | 4 kts | 209° |
| 2026-05-05 09:51 | 42.56027 | 18.26584 | 515 ft | 4 kts | 218° |
| 2026-05-05 09:52 | 42.56041 | 18.26593 | 515 ft | 4 kts | 275° |
| 2026-05-05 09:52 | 42.56035 | 18.26617 | 515 ft | 4 kts | 306° |
| 2026-05-05 09:52 | 42.56021 | 18.26643 | 515 ft | 1 kts | 296° |
| 2026-05-05 09:52 | 42.56021 | 18.26644 | 515 ft | 0 kts | 296° |
| 2026-05-05 09:54 | 42.56021 | 18.26643 | 515 ft | 1 kts | 296° |
| 2026-05-05 09:55 | 42.56031 | 18.26616 | 515 ft | 5 kts | 296° |
| 2026-05-05 09:55 | 42.56051 | 18.26563 | 516 ft | 7 kts | 296° |
| 2026-05-05 09:55 | 42.56074 | 18.26502 | 516 ft | 8 kts | 299° |
| 2026-05-05 09:55 | 42.56102 | 18.26436 | 517 ft | 8 kts | 299° |
| 2026-05-05 09:56 | 42.56132 | 18.26364 | 518 ft | 9 kts | 299° |
| 2026-05-05 09:56 | 42.56165 | 18.26282 | 518 ft | 10 kts | 298° |
| 2026-05-05 09:56 | 42.56200 | 18.26194 | 519 ft | 11 kts | 298° |
| 2026-05-05 09:56 | 42.56238 | 18.26097 | 520 ft | 12 kts | 297° |
| 2026-05-05 09:57 | 42.56276 | 18.25996 | 521 ft | 13 kts | 298° |
| 2026-05-05 09:57 | 42.56319 | 18.25889 | 522 ft | 13 kts | 298° |
| 2026-05-05 09:57 | 42.56363 | 18.25777 | 524 ft | 14 kts | 298° |
| 2026-05-05 09:57 | 42.56410 | 18.25659 | 525 ft | 15 kts | 298° |
| 2026-05-05 09:58 | 42.56460 | 18.25536 | 526 ft | 15 kts | 299° |
| 2026-05-05 09:58 | 42.56511 | 18.25408 | 527 ft | 16 kts | 298° |
| 2026-05-05 09:58 | 42.56564 | 18.25274 | 528 ft | 16 kts | 298° |
| 2026-05-05 09:58 | 42.56618 | 18.25136 | 529 ft | 17 kts | 297° |
| 2026-05-05 09:59 | 42.56673 | 18.24995 | 531 ft | 17 kts | 298° |
| 2026-05-05 09:59 | 42.56711 | 18.24900 | 532 ft | 17 kts | 298° |
| 2026-05-05 09:59 | 42.56762 | 18.24773 | 533 ft | 13 kts | 298° |
| 2026-05-05 09:59 | 42.56785 | 18.24722 | 534 ft | 0 kts | 306° |
| 2026-05-05 10:00 | 42.56787 | 18.24719 | 534 ft | 2 kts | 307° |
| 2026-05-05 10:00 | 42.56848 | 18.24677 | 534 ft | 14 kts | 356° |
| 2026-05-05 10:01 | 42.56931 | 18.24749 | 535 ft | 15 kts | 56° |
| 2026-05-05 10:01 | 42.56914 | 18.24867 | 533 ft | 13 kts | 114° |
| 2026-05-05 10:01 | 42.56789 | 18.25184 | 529 ft | 81 kts | 120° |
| 2026-05-05 10:01 | 42.56389 | 18.26180 | 523 ft | 156 kts | 118° |
| 2026-05-05 10:02 | 42.55783 | 18.27707 | 718 ft | 198 kts | 120° |
| 2026-05-05 10:02 | 42.55138 | 18.29457 | 1142 ft | 221 kts | 118° |
| 2026-05-05 10:02 | 42.54466 | 18.31359 | 2007 ft | 219 kts | 119° |
| 2026-05-05 10:02 | 42.53763 | 18.33115 | 3304 ft | 208 kts | 122° |
| 2026-05-05 10:03 | 42.52801 | 18.34584 | 4193 ft | 213 kts | 148° |
| 2026-05-05 10:03 | 42.51402 | 18.35194 | 5123 ft | 214 kts | 179° |
| 2026-05-05 10:03 | 42.49960 | 18.34765 | 5973 ft | 217 kts | 208° |
| 2026-05-05 10:03 | 42.48826 | 18.33409 | 6839 ft | 220 kts | 229° |
| 2026-05-05 10:04 | 42.47785 | 18.31862 | 7499 ft | 224 kts | 222° |
| 2026-05-05 10:04 | 42.46499 | 18.30578 | 8037 ft | 233 kts | 208° |
| 2026-05-05 10:04 | 42.45045 | 18.29723 | 8937 ft | 227 kts | 199° |
| 2026-05-05 10:04 | 42.43519 | 18.29109 | 9608 ft | 232 kts | 195° |
| 2026-05-05 10:05 | 42.41932 | 18.28592 | 10278 ft | 236 kts | 194° |
| 2026-05-05 10:05 | 42.40476 | 18.27591 | 10890 ft | 238 kts | 221° |
| 2026-05-05 10:05 | 42.39537 | 18.25756 | 11523 ft | 241 kts | 249° |
| 2026-05-05 10:05 | 42.39359 | 18.23494 | 12140 ft | 247 kts | 277° |
| 2026-05-05 10:06 | 42.39875 | 18.21253 | 12696 ft | 255 kts | 288° |
| 2026-05-05 10:06 | 42.40501 | 18.18903 | 12873 ft | 276 kts | 287° |
| 2026-05-05 10:06 | 42.41137 | 18.16353 | 13067 ft | 296 kts | 286° |
| 2026-05-05 10:06 | 42.41779 | 18.13664 | 13584 ft | 302 kts | 285° |
| 2026-05-05 10:07 | 42.42416 | 18.10935 | 14113 ft | 310 kts | 285° |
| 2026-05-05 10:07 | 42.43073 | 18.08066 | 14285 ft | 328 kts | 285° |
| 2026-05-05 10:07 | 42.43766 | 18.05049 | 14432 ft | 345 kts | 285° |
| 2026-05-05 10:07 | 42.44493 | 18.01891 | 14758 ft | 354 kts | 285° |
| 2026-05-05 10:08 | 42.45228 | 17.98706 | 15344 ft | 356 kts | 285° |
| 2026-05-05 10:08 | 42.45968 | 17.95494 | 15917 ft | 357 kts | 285° |
| 2026-05-05 10:08 | 42.46709 | 17.92271 | 16467 ft | 360 kts | 286° |
| 2026-05-05 10:08 | 42.47452 | 17.89028 | 17035 ft | 362 kts | 286° |
| 2026-05-05 10:09 | 42.48199 | 17.85770 | 17576 ft | 364 kts | 286° |
| 2026-05-05 10:09 | 42.48954 | 17.82470 | 18100 ft | 367 kts | 286° |
| 2026-05-05 10:09 | 42.49709 | 17.79158 | 18625 ft | 369 kts | 286° |
| 2026-05-05 10:09 | 42.50468 | 17.75831 | 19132 ft | 370 kts | 287° |
| 2026-05-05 10:10 | 42.51231 | 17.72483 | 19627 ft | 372 kts | 287° |
| 2026-05-05 10:10 | 42.51995 | 17.69124 | 20133 ft | 374 kts | 287° |
| 2026-05-05 10:10 | 42.52803 | 17.65761 | 20628 ft | 376 kts | 290° |
| 2026-05-05 10:10 | 42.53818 | 17.62477 | 21118 ft | 379 kts | 295° |
| 2026-05-05 10:11 | 42.55051 | 17.59316 | 21630 ft | 381 kts | 300° |
| 2026-05-05 10:11 | 42.56499 | 17.56281 | 22139 ft | 384 kts | 304° |
| 2026-05-05 10:11 | 42.58139 | 17.53417 | 22689 ft | 386 kts | 309° |
| 2026-05-05 10:11 | 42.59968 | 17.50728 | 23190 ft | 389 kts | 313° |
| 2026-05-05 10:12 | 42.61884 | 17.48126 | 23704 ft | 391 kts | 313° |
| 2026-05-05 10:12 | 42.63800 | 17.45492 | 24138 ft | 393 kts | 313° |
| 2026-05-05 10:12 | 42.65717 | 17.42842 | 24588 ft | 394 kts | 313° |
| 2026-05-05 10:12 | 42.67638 | 17.40179 | 25019 ft | 396 kts | 312° |
| 2026-05-05 10:13 | 42.69575 | 17.37491 | 25455 ft | 398 kts | 312° |
| 2026-05-05 10:13 | 42.71519 | 17.34793 | 25876 ft | 400 kts | 312° |
| 2026-05-05 10:13 | 42.73469 | 17.32085 | 26298 ft | 402 kts | 312° |
| 2026-05-05 10:13 | 42.75432 | 17.29356 | 26720 ft | 404 kts | 312° |
| 2026-05-05 10:14 | 42.77407 | 17.26610 | 27135 ft | 406 kts | 312° |
| 2026-05-05 10:14 | 42.79390 | 17.23847 | 27534 ft | 409 kts | 312° |
| 2026-05-05 10:14 | 42.81384 | 17.21068 | 27903 ft | 412 kts | 312° |
| 2026-05-05 10:14 | 42.83387 | 17.18272 | 28286 ft | 414 kts | 312° |
| 2026-05-05 10:15 | 42.85377 | 17.15491 | 28663 ft | 416 kts | 312° |
| 2026-05-05 10:15 | 42.87404 | 17.12656 | 29018 ft | 419 kts | 312° |
| 2026-05-05 10:15 | 42.89441 | 17.09805 | 29365 ft | 421 kts | 312° |
| 2026-05-05 10:15 | 42.91520 | 17.06893 | 29724 ft | 424 kts | 312° |
| 2026-05-05 10:16 | 42.93587 | 17.03994 | 30087 ft | 427 kts | 312° |
| 2026-05-05 10:16 | 42.95631 | 17.01123 | 30431 ft | 429 kts | 311° |
| 2026-05-05 10:16 | 42.97709 | 16.98205 | 30866 ft | 429 kts | 311° |
| 2026-05-05 10:16 | 42.99782 | 16.95289 | 31282 ft | 428 kts | 311° |
| 2026-05-05 10:17 | 43.01886 | 16.92328 | 31672 ft | 429 kts | 311° |
| 2026-05-05 10:17 | 43.03937 | 16.89437 | 32038 ft | 429 kts | 311° |
| 2026-05-05 10:17 | 43.06014 | 16.86506 | 32425 ft | 430 kts | 310° |
| 2026-05-05 10:17 | 43.08097 | 16.83564 | 32720 ft | 431 kts | 310° |
| 2026-05-05 10:18 | 43.10188 | 16.80607 | 32988 ft | 433 kts | 310° |
| 2026-05-05 10:18 | 43.12281 | 16.77645 | 33215 ft | 434 kts | 310° |
| 2026-05-05 10:18 | 43.14382 | 16.74667 | 33397 ft | 436 kts | 310° |
| 2026-05-05 10:18 | 43.16493 | 16.71672 | 33564 ft | 437 kts | 310° |
| 2026-05-05 10:19 | 43.18599 | 16.68681 | 33776 ft | 438 kts | 310° |
| 2026-05-05 10:19 | 43.20714 | 16.65676 | 33989 ft | 437 kts | 310° |
| 2026-05-05 10:19 | 43.22822 | 16.62678 | 34193 ft | 437 kts | 310° |
| 2026-05-05 10:19 | 43.24933 | 16.59671 | 34339 ft | 438 kts | 310° |
| 2026-05-05 10:20 | 43.27051 | 16.56652 | 34491 ft | 439 kts | 310° |
| 2026-05-05 10:20 | 43.29166 | 16.53632 | 34653 ft | 440 kts | 310° |
| 2026-05-05 10:20 | 43.31285 | 16.50603 | 34825 ft | 440 kts | 310° |
| 2026-05-05 10:20 | 43.33404 | 16.47571 | 35001 ft | 440 kts | 310° |
| 2026-05-05 10:21 | 43.35524 | 16.44532 | 35178 ft | 441 kts | 310° |
| 2026-05-05 10:21 | 43.37650 | 16.41482 | 35342 ft | 441 kts | 310° |
| 2026-05-05 10:21 | 43.39769 | 16.38440 | 35520 ft | 441 kts | 310° |
| 2026-05-05 10:21 | 43.41893 | 16.35387 | 35673 ft | 442 kts | 310° |
| 2026-05-05 10:22 | 43.44017 | 16.32332 | 35837 ft | 442 kts | 310° |
| 2026-05-05 10:22 | 43.46142 | 16.29273 | 35998 ft | 442 kts | 311° |
| 2026-05-05 10:22 | 43.48267 | 16.26208 | 36175 ft | 442 kts | 311° |
| 2026-05-05 10:22 | 43.50389 | 16.23147 | 36347 ft | 442 kts | 311° |
| 2026-05-05 10:23 | 43.52513 | 16.20078 | 36508 ft | 443 kts | 311° |
| 2026-05-05 10:23 | 43.54638 | 16.17005 | 36696 ft | 443 kts | 311° |
| 2026-05-05 10:23 | 43.56762 | 16.13931 | 36861 ft | 443 kts | 311° |
| 2026-05-05 10:23 | 43.58888 | 16.10849 | 37040 ft | 442 kts | 311° |
| 2026-05-05 10:24 | 43.61005 | 16.07778 | 37203 ft | 442 kts | 311° |
| 2026-05-05 10:24 | 43.63125 | 16.04697 | 37384 ft | 442 kts | 311° |
| 2026-05-05 10:24 | 43.65241 | 16.01623 | 37562 ft | 442 kts | 310° |
| 2026-05-05 10:24 | 43.67361 | 15.98537 | 37745 ft | 442 kts | 310° |
| 2026-05-05 10:25 | 43.69472 | 15.95461 | 37901 ft | 442 kts | 310° |
| 2026-05-05 10:25 | 43.71586 | 15.92378 | 38086 ft | 441 kts | 310° |
| 2026-05-05 10:25 | 43.73694 | 15.89299 | 38262 ft | 441 kts | 310° |
| 2026-05-05 10:25 | 43.75803 | 15.86214 | 38446 ft | 441 kts | 310° |
| 2026-05-05 10:26 | 43.77905 | 15.83139 | 38629 ft | 441 kts | 310° |
| 2026-05-05 10:26 | 43.80015 | 15.80048 | 38785 ft | 440 kts | 310° |
| 2026-05-05 10:26 | 43.82110 | 15.76975 | 38898 ft | 440 kts | 310° |
| 2026-05-05 10:26 | 43.84206 | 15.73897 | 38989 ft | 441 kts | 310° |
| 2026-05-05 10:27 | 43.88432 | 15.67682 | 39191 ft | 442 kts | 310° |
| 2026-05-05 10:27 | 43.90540 | 15.64577 | 39301 ft | 443 kts | 310° |
| 2026-05-05 10:27 | 43.92652 | 15.61461 | 39403 ft | 443 kts | 310° |
| 2026-05-05 10:28 | 43.94761 | 15.58348 | 39525 ft | 443 kts | 310° |
| 2026-05-05 10:28 | 43.96878 | 15.55218 | 39640 ft | 444 kts | 310° |
| 2026-05-05 10:28 | 44.01098 | 15.48968 | 39835 ft | 445 kts | 310° |
| 2026-05-05 10:29 | 44.05333 | 15.42683 | 40035 ft | 445 kts | 310° |
| 2026-05-05 10:29 | 44.09585 | 15.36366 | 40076 ft | 449 kts | 310° |
| 2026-05-05 10:30 | 44.13910 | 15.30059 | 40074 ft | 452 kts | 311° |
| 2026-05-05 10:30 | 44.18296 | 15.23744 | 40075 ft | 455 kts | 311° |
| 2026-05-05 10:31 | 44.22662 | 15.17424 | 40078 ft | 456 kts | 311° |
| 2026-05-05 10:31 | 44.27059 | 15.11032 | 40071 ft | 457 kts | 311° |
| 2026-05-05 10:32 | 44.31458 | 15.04618 | 40069 ft | 458 kts | 311° |
| 2026-05-05 10:32 | 44.35869 | 14.98171 | 40066 ft | 459 kts | 311° |
| 2026-05-05 10:33 | 44.40271 | 14.91724 | 40067 ft | 458 kts | 311° |
| 2026-05-05 10:33 | 44.44594 | 14.85383 | 40066 ft | 445 kts | 311° |
| 2026-05-05 10:34 | 44.48881 | 14.79071 | 40064 ft | 448 kts | 311° |
| 2026-05-05 10:34 | 44.53171 | 14.72743 | 40066 ft | 448 kts | 311° |
| 2026-05-05 10:35 | 44.57468 | 14.66391 | 40064 ft | 449 kts | 311° |
| 2026-05-05 10:35 | 44.61761 | 14.60030 | 40062 ft | 449 kts | 310° |
| 2026-05-05 10:36 | 44.66045 | 14.53668 | 40063 ft | 450 kts | 310° |
| 2026-05-05 10:36 | 44.70343 | 14.47272 | 40063 ft | 450 kts | 310° |
| 2026-05-05 10:37 | 44.74641 | 14.40859 | 40065 ft | 451 kts | 310° |
| 2026-05-05 10:37 | 44.78946 | 14.34422 | 40069 ft | 451 kts | 310° |
| 2026-05-05 10:38 | 44.83240 | 14.27986 | 40063 ft | 451 kts | 310° |
| 2026-05-05 10:38 | 44.87505 | 14.21579 | 40060 ft | 451 kts | 310° |
| 2026-05-05 10:39 | 44.91782 | 14.15139 | 40057 ft | 450 kts | 310° |
| 2026-05-05 10:39 | 44.96071 | 14.08666 | 40053 ft | 450 kts | 310° |
| 2026-05-05 10:40 | 45.00340 | 14.02206 | 40051 ft | 450 kts | 310° |
| 2026-05-05 10:40 | 45.04617 | 13.95721 | 40054 ft | 450 kts | 310° |
| 2026-05-05 10:41 | 45.08882 | 13.89237 | 40055 ft | 450 kts | 310° |
| 2026-05-05 10:41 | 45.13147 | 13.82741 | 40059 ft | 450 kts | 310° |
| 2026-05-05 10:42 | 45.19528 | 13.72989 | 40053 ft | 450 kts | 310° |
| 2026-05-05 10:43 | 45.23789 | 13.66457 | 40047 ft | 451 kts | 310° |
| 2026-05-05 10:43 | 45.28042 | 13.59924 | 40046 ft | 451 kts | 310° |
| 2026-05-05 10:44 | 45.32295 | 13.53375 | 40050 ft | 451 kts | 309° |
| 2026-05-05 10:44 | 45.35825 | 13.47926 | 40047 ft | 451 kts | 309° |
| 2026-05-05 10:45 | 45.40074 | 13.41355 | 40044 ft | 451 kts | 309° |
| 2026-05-05 10:45 | 45.44311 | 13.34786 | 40042 ft | 451 kts | 309° |
| 2026-05-05 10:46 | 45.48555 | 13.28196 | 40042 ft | 451 kts | 309° |
| 2026-05-05 10:46 | 45.52994 | 13.21850 | 40037 ft | 453 kts | 314° |
| 2026-05-05 10:47 | 45.57605 | 13.15702 | 40036 ft | 453 kts | 313° |
| 2026-05-05 10:47 | 45.62168 | 13.09498 | 40032 ft | 453 kts | 313° |
| 2026-05-05 10:48 | 45.66704 | 13.03257 | 40032 ft | 453 kts | 313° |
| 2026-05-05 10:48 | 45.71239 | 12.96995 | 40042 ft | 453 kts | 313° |
| 2026-05-05 10:49 | 45.75772 | 12.90721 | 40041 ft | 454 kts | 313° |
| 2026-05-05 10:49 | 45.80303 | 12.84438 | 40019 ft | 454 kts | 313° |
| 2026-05-05 10:50 | 45.84846 | 12.78123 | 40026 ft | 455 kts | 313° |
| 2026-05-05 10:50 | 45.89384 | 12.71798 | 40053 ft | 455 kts | 313° |
| 2026-05-05 10:51 | 45.93916 | 12.65467 | 40062 ft | 455 kts | 313° |
| 2026-05-05 10:51 | 45.98454 | 12.59113 | 40043 ft | 456 kts | 312° |
| 2026-05-05 10:52 | 46.02997 | 12.52736 | 40039 ft | 457 kts | 312° |
| 2026-05-05 10:52 | 46.07508 | 12.46387 | 40046 ft | 457 kts | 312° |
| 2026-05-05 10:53 | 46.12054 | 12.39974 | 40048 ft | 458 kts | 312° |
| 2026-05-05 10:53 | 46.16607 | 12.33540 | 40042 ft | 458 kts | 312° |
| 2026-05-05 10:54 | 46.21157 | 12.27090 | 40027 ft | 458 kts | 312° |
| 2026-05-05 10:54 | 46.25696 | 12.20648 | 40007 ft | 458 kts | 312° |
| 2026-05-05 10:55 | 46.30244 | 12.14168 | 40001 ft | 458 kts | 312° |
| 2026-05-05 10:55 | 46.34781 | 12.07686 | 39993 ft | 459 kts | 312° |
| 2026-05-05 10:56 | 46.39327 | 12.01179 | 39985 ft | 460 kts | 312° |
| 2026-05-05 10:56 | 46.43861 | 11.94673 | 39984 ft | 459 kts | 312° |
| 2026-05-05 10:57 | 46.48392 | 11.88156 | 39981 ft | 459 kts | 312° |
| 2026-05-05 10:57 | 46.52929 | 11.81614 | 39967 ft | 459 kts | 312° |
| 2026-05-05 10:58 | 46.57451 | 11.75077 | 39961 ft | 459 kts | 311° |
| 2026-05-05 10:58 | 46.61982 | 11.68508 | 39962 ft | 460 kts | 311° |
| 2026-05-05 10:59 | 46.66509 | 11.61928 | 39960 ft | 460 kts | 311° |
| 2026-05-05 10:59 | 46.71038 | 11.55332 | 39971 ft | 461 kts | 311° |
| 2026-05-05 11:00 | 46.75571 | 11.48714 | 39963 ft | 461 kts | 311° |
| 2026-05-05 11:00 | 46.80099 | 11.42087 | 39951 ft | 462 kts | 311° |
| 2026-05-05 11:01 | 46.84633 | 11.35431 | 39948 ft | 463 kts | 311° |
| 2026-05-05 11:01 | 46.89173 | 11.28747 | 39955 ft | 463 kts | 311° |
| 2026-05-05 11:02 | 46.93678 | 11.22132 | 39925 ft | 462 kts | 313° |
| 2026-05-05 11:02 | 46.98796 | 11.16358 | 39880 ft | 466 kts | 322° |
| 2026-05-05 11:03 | 47.04110 | 11.10811 | 39890 ft | 466 kts | 321° |
| 2026-05-05 11:03 | 47.09360 | 11.05251 | 39883 ft | 467 kts | 321° |
| 2026-05-05 11:04 | 47.14595 | 10.99689 | 39889 ft | 468 kts | 321° |
| 2026-05-05 11:04 | 47.19877 | 10.94073 | 39868 ft | 468 kts | 321° |
| 2026-05-05 11:05 | 47.20755 | 10.93138 | 39845 ft | 469 kts | 321° |
| 2026-05-05 11:05 | 47.24456 | 10.89185 | 39878 ft | 469 kts | 321° |
| 2026-05-05 11:06 | 47.29737 | 10.83536 | 39864 ft | 469 kts | 321° |
| 2026-05-05 11:06 | 47.35002 | 10.77890 | 39839 ft | 469 kts | 321° |
| 2026-05-05 11:07 | 47.40280 | 10.72219 | 39848 ft | 469 kts | 321° |
| 2026-05-05 11:07 | 47.45545 | 10.66546 | 39851 ft | 469 kts | 320° |
| 2026-05-05 11:08 | 47.50821 | 10.60846 | 39860 ft | 470 kts | 320° |
| 2026-05-05 11:08 | 47.56084 | 10.55147 | 39857 ft | 470 kts | 320° |
| 2026-05-05 11:09 | 47.61370 | 10.49407 | 39861 ft | 470 kts | 320° |
| 2026-05-05 11:09 | 47.66636 | 10.43673 | 39872 ft | 471 kts | 320° |
| 2026-05-05 11:10 | 47.71924 | 10.37901 | 39878 ft | 471 kts | 320° |
| 2026-05-05 11:10 | 47.76630 | 10.32500 | 39887 ft | 470 kts | 317° |
| 2026-05-05 11:11 | 47.81686 | 10.26320 | 39888 ft | 471 kts | 317° |
| 2026-05-05 11:11 | 47.86751 | 10.20159 | 39895 ft | 471 kts | 317° |
| 2026-05-05 11:12 | 47.91829 | 10.13953 | 39900 ft | 471 kts | 317° |
| 2026-05-05 11:12 | 47.96887 | 10.07749 | 39901 ft | 471 kts | 317° |
| 2026-05-05 11:13 | 48.01940 | 10.01534 | 39904 ft | 472 kts | 317° |
| 2026-05-05 11:13 | 48.07011 | 9.95281 | 39908 ft | 472 kts | 317° |
| 2026-05-05 11:14 | 48.12071 | 9.89023 | 39912 ft | 472 kts | 317° |
| 2026-05-05 11:14 | 48.17144 | 9.82735 | 39916 ft | 473 kts | 317° |
| 2026-05-05 11:15 | 48.22207 | 9.76443 | 39922 ft | 473 kts | 317° |
| 2026-05-05 11:15 | 48.27266 | 9.70140 | 39926 ft | 474 kts | 317° |
| 2026-05-05 11:16 | 48.32338 | 9.63802 | 39924 ft | 473 kts | 317° |
| 2026-05-05 11:16 | 48.37380 | 9.57442 | 39925 ft | 473 kts | 316° |
| 2026-05-05 11:17 | 48.42390 | 9.51003 | 39926 ft | 474 kts | 316° |
| 2026-05-05 11:17 | 48.47350 | 9.44625 | 39926 ft | 474 kts | 316° |
| 2026-05-05 11:18 | 48.52418 | 9.38103 | 39939 ft | 474 kts | 316° |
| 2026-05-05 11:18 | 48.57422 | 9.31646 | 39945 ft | 474 kts | 316° |
| 2026-05-05 11:19 | 48.62726 | 9.25671 | 39951 ft | 479 kts | 327° |
| 2026-05-05 11:19 | 48.68769 | 9.21377 | 39960 ft | 482 kts | 334° |
| 2026-05-05 11:20 | 48.74919 | 9.17316 | 39935 ft | 482 kts | 334° |
| 2026-05-05 11:20 | 48.81058 | 9.13227 | 39892 ft | 482 kts | 334° |
| 2026-05-05 11:21 | 48.87238 | 9.09111 | 39870 ft | 482 kts | 334° |
| 2026-05-05 11:21 | 48.93368 | 9.04942 | 39867 ft | 483 kts | 333° |
| 2026-05-05 11:22 | 48.99441 | 9.00697 | 39868 ft | 483 kts | 333° |
| 2026-05-05 11:22 | 49.05592 | 8.96405 | 39877 ft | 483 kts | 333° |
| 2026-05-05 11:23 | 49.11697 | 8.92145 | 39877 ft | 483 kts | 333° |
| 2026-05-05 11:23 | 49.17810 | 8.87870 | 39882 ft | 483 kts | 333° |
| 2026-05-05 11:24 | 49.24135 | 8.84350 | 39890 ft | 486 kts | 340° |
| 2026-05-05 11:24 | 49.30549 | 8.81241 | 39893 ft | 486 kts | 340° |
| 2026-05-05 11:25 | 49.36993 | 8.78080 | 39902 ft | 486 kts | 340° |
| 2026-05-05 11:25 | 49.43417 | 8.74929 | 39909 ft | 486 kts | 340° |
| 2026-05-05 11:26 | 49.48771 | 8.72298 | 39887 ft | 486 kts | 340° |
| 2026-05-05 11:26 | 49.56268 | 8.68605 | 39849 ft | 486 kts | 339° |
| 2026-05-05 11:27 | 49.62705 | 8.65424 | 39841 ft | 487 kts | 339° |
| 2026-05-05 11:27 | 49.68070 | 8.62611 | 39862 ft | 484 kts | 333° |
| 2026-05-05 11:28 | 49.73846 | 8.57422 | 39861 ft | 478 kts | 320° |
| 2026-05-05 11:28 | 49.78827 | 8.50689 | 39842 ft | 474 kts | 313° |
| 2026-05-05 11:29 | 49.83127 | 8.43139 | 39822 ft | 468 kts | 298° |
| 2026-05-05 11:29 | 49.85775 | 8.34060 | 39851 ft | 460 kts | 282° |
| 2026-05-05 11:30 | 49.87043 | 8.24336 | 39858 ft | 457 kts | 277° |
| 2026-05-05 11:30 | 49.88230 | 8.14624 | 39852 ft | 459 kts | 277° |
| 2026-05-05 11:31 | 49.89411 | 8.04942 | 39846 ft | 457 kts | 277° |
| 2026-05-05 11:31 | 49.90576 | 7.95235 | 39842 ft | 458 kts | 277° |
| 2026-05-05 11:32 | 49.91728 | 7.85565 | 39839 ft | 458 kts | 277° |
| 2026-05-05 11:32 | 49.92877 | 7.75838 | 39842 ft | 458 kts | 277° |
| 2026-05-05 11:33 | 49.94027 | 7.66048 | 39847 ft | 458 kts | 277° |